sensor_id;sensor_type;location;lat;lon;timestamp;pressure;altitude;pressure_sealevel;temperature;humidity
61963;BME280;47927;42.646;23.096;2023-02-13T00:00:30;93672.78;;;-2.01;52.86
61963;BME280;47927;42.646;23.096;2023-02-13T00:02:55;93676.34;;;-2.02;54.30
61963;BME280;47927;42.646;23.096;2023-02-13T00:05:21;93684.81;;;-1.96;54.43
61963;BME280;47927;42.646;23.096;2023-02-13T00:07:46;93673.63;;;-1.90;53.36
61963;BME280;47927;42.646;23.096;2023-02-13T00:10:12;93673.63;;;-1.90;53.66
61963;BME280;47927;42.646;23.096;2023-02-13T00:12:38;93652.63;;;-1.97;56.50
61963;BME280;47927;42.646;23.096;2023-02-13T00:15:05;93676.06;;;-1.68;57.19
61963;BME280;47927;42.646;23.096;2023-02-13T00:17:31;93671.72;;;-1.68;54.49
61963;BME280;47927;42.646;23.096;2023-02-13T00:19:56;93679.13;;;-1.71;54.43
61963;BME280;47927;42.646;23.096;2023-02-13T00:22:22;93676.63;;;-1.61;54.52
61963;BME280;47927;42.646;23.096;2023-02-13T00:24:48;93675.03;;;-1.67;58.43
61963;BME280;47927;42.646;23.096;2023-02-13T00:27:14;93675.66;;;-1.50;58.55
61963;BME280;47927;42.646;23.096;2023-02-13T00:29:39;93676.97;;;-1.47;55.59
61963;BME280;47927;42.646;23.096;2023-02-13T00:32:05;93678.19;;;-1.55;55.91
61963;BME280;47927;42.646;23.096;2023-02-13T00:34:31;93678.44;;;-1.56;57.29
61963;BME280;47927;42.646;23.096;2023-02-13T00:36:57;93683.59;;;-1.51;56.67
61963;BME280;47927;42.646;23.096;2023-02-13T00:39:22;93685.13;;;-1.50;56.67
61963;BME280;47927;42.646;23.096;2023-02-13T00:41:48;93656.13;;;-1.71;57.11
61963;BME280;47927;42.646;23.096;2023-02-13T00:44:13;93681.22;;;-1.58;57.47
61963;BME280;47927;42.646;23.096;2023-02-13T00:46:39;93687.41;;;-1.54;57.16
61963;BME280;47927;42.646;23.096;2023-02-13T00:49:04;93685.56;;;-1.58;56.15
61963;BME280;47927;42.646;23.096;2023-02-13T00:51:33;93690.53;;;-1.84;56.33
61963;BME280;47927;42.646;23.096;2023-02-13T00:53:59;93691.47;;;-1.95;56.37
61963;BME280;47927;42.646;23.096;2023-02-13T00:56:25;93692.06;;;-1.83;55.45
61963;BME280;47927;42.646;23.096;2023-02-13T00:58:51;93679.72;;;-1.96;54.87
61963;BME280;47927;42.646;23.096;2023-02-13T01:01:17;93696.13;;;-1.87;54.65
61963;BME280;47927;42.646;23.096;2023-02-13T01:03:42;93703.09;;;-1.77;54.20
61963;BME280;47927;42.646;23.096;2023-02-13T01:06:08;93698.78;;;-1.72;54.63
61963;BME280;47927;42.646;23.096;2023-02-13T01:08:33;93707.75;;;-1.69;55.92
61963;BME280;47927;42.646;23.096;2023-02-13T01:10:59;93707.00;;;-1.65;54.90
61963;BME280;47927;42.646;23.096;2023-02-13T01:13:25;93703.47;;;-1.64;54.16
61963;BME280;47927;42.646;23.096;2023-02-13T01:15:52;93698.31;;;-1.69;53.36
61963;BME280;47927;42.646;23.096;2023-02-13T01:18:19;93703.16;;;-1.67;52.70
61963;BME280;47927;42.646;23.096;2023-02-13T01:20:45;93695.03;;;-1.59;52.56
61963;BME280;47927;42.646;23.096;2023-02-13T01:23:19;93703.25;;;-1.57;52.81
61963;BME280;47927;42.646;23.096;2023-02-13T01:25:45;93673.19;;;-1.77;53.93
61963;BME280;47927;42.646;23.096;2023-02-13T01:28:10;93704.44;;;-1.65;52.98
61963;BME280;47927;42.646;23.096;2023-02-13T01:30:36;93706.47;;;-1.67;53.44
61963;BME280;47927;42.646;23.096;2023-02-13T01:33:01;93708.56;;;-1.64;52.60
61963;BME280;47927;42.646;23.096;2023-02-13T01:35:27;93703.63;;;-1.70;52.77
61963;BME280;47927;42.646;23.096;2023-02-13T01:37:53;93698.47;;;-1.80;54.21
61963;BME280;47927;42.646;23.096;2023-02-13T01:40:18;93698.09;;;-1.94;53.20
61963;BME280;47927;42.646;23.096;2023-02-13T01:42:44;93706.13;;;-1.80;52.48
61963;BME280;47927;42.646;23.096;2023-02-13T01:45:23;93709.22;;;-1.78;51.28
61963;BME280;47927;42.646;23.096;2023-02-13T01:48:02;93707.19;;;-1.76;51.69
61963;BME280;47927;42.646;23.096;2023-02-13T01:50:50;93707.94;;;-1.76;52.25
61963;BME280;47927;42.646;23.096;2023-02-13T01:55:55;93706.47;;;-1.67;52.84
61963;BME280;47927;42.646;23.096;2023-02-13T01:58:28;93705.19;;;-1.69;54.31
61963;BME280;47927;42.646;23.096;2023-02-13T02:00:57;93705.53;;;-1.55;55.42
61963;BME280;47927;42.646;23.096;2023-02-13T02:03:41;93705.66;;;-1.35;53.68
61963;BME280;47927;42.646;23.096;2023-02-13T02:06:14;93710.88;;;-1.15;53.35
61963;BME280;47927;42.646;23.096;2023-02-13T02:08:41;93697.09;;;-1.08;55.44
61963;BME280;47927;42.646;23.096;2023-02-13T02:11:17;93719.75;;;-0.80;56.33
61963;BME280;47927;42.646;23.096;2023-02-13T02:13:44;93710.09;;;-0.57;56.85
61963;BME280;47927;42.646;23.096;2023-02-13T02:16:10;93710.91;;;-0.36;56.30
61963;BME280;47927;42.646;23.096;2023-02-13T02:18:36;93714.56;;;-0.02;54.85
61963;BME280;47927;42.646;23.096;2023-02-13T02:23:57;93719.41;;;0.05;52.88
61963;BME280;47927;42.646;23.096;2023-02-13T06:03:45;93788.56;;;2.37;54.92
61963;BME280;47927;42.646;23.096;2023-02-13T06:06:11;93792.22;;;2.26;55.33
61963;BME280;47927;42.646;23.096;2023-02-13T06:08:37;93788.97;;;2.10;55.84
61963;BME280;47927;42.646;23.096;2023-02-13T06:11:04;93792.22;;;2.26;55.66
61963;BME280;47927;42.646;23.096;2023-02-13T06:13:30;93792.72;;;2.33;55.25
61963;BME280;47927;42.646;23.096;2023-02-13T06:15:56;93791.31;;;2.51;54.94
61963;BME280;47927;42.646;23.096;2023-02-13T07:07:15;93813.81;;;2.99;55.85
61963;BME280;47927;42.646;23.096;2023-02-13T07:09:40;93804.25;;;3.33;55.19
61963;BME280;47927;42.646;23.096;2023-02-13T07:12:07;93809.97;;;3.73;54.16
61963;BME280;47927;42.646;23.096;2023-02-13T07:14:33;93804.47;;;3.80;53.96
61963;BME280;47927;42.646;23.096;2023-02-13T07:16:59;93802.22;;;3.97;53.23
61963;BME280;47927;42.646;23.096;2023-02-13T07:19:26;93802.63;;;4.04;52.34
61963;BME280;47927;42.646;23.096;2023-02-13T07:21:53;93807.22;;;4.07;52.72
61963;BME280;47927;42.646;23.096;2023-02-13T07:24:19;93806.41;;;4.12;52.39
61963;BME280;47927;42.646;23.096;2023-02-13T07:26:45;93812.78;;;3.53;54.14
61963;BME280;47927;42.646;23.096;2023-02-13T07:29:11;93813.31;;;3.74;54.36
61963;BME280;47927;42.646;23.096;2023-02-13T07:31:36;93808.81;;;3.84;53.20
61963;BME280;47927;42.646;23.096;2023-02-13T07:34:03;93792.88;;;4.01;52.65
61963;BME280;47927;42.646;23.096;2023-02-13T07:36:28;93820.06;;;3.94;52.56
61963;BME280;47927;42.646;23.096;2023-02-13T07:38:54;93812.41;;;3.64;53.57
61963;BME280;47927;42.646;23.096;2023-02-13T07:41:19;93820.41;;;4.06;52.74
61963;BME280;47927;42.646;23.096;2023-02-13T07:43:45;93814.19;;;4.07;52.65
61963;BME280;47927;42.646;23.096;2023-02-13T07:46:11;93811.03;;;3.72;52.93
61963;BME280;47927;42.646;23.096;2023-02-13T07:48:36;93813.38;;;4.11;52.65
61963;BME280;47927;42.646;23.096;2023-02-13T07:51:03;93811.25;;;4.38;51.96
61963;BME280;47927;42.646;23.096;2023-02-13T07:53:30;93819.91;;;4.61;50.91
61963;BME280;47927;42.646;23.096;2023-02-13T07:55:55;93816.59;;;4.41;51.09
61963;BME280;47927;42.646;23.096;2023-02-13T07:58:21;93819.09;;;4.65;50.96
61963;BME280;47927;42.646;23.096;2023-02-13T08:00:46;93810.59;;;4.65;50.70
61963;BME280;47927;42.646;23.096;2023-02-13T08:03:12;93819.13;;;4.46;50.54
61963;BME280;47927;42.646;23.096;2023-02-13T08:05:38;93815.81;;;4.22;51.82
61963;BME280;47927;42.646;23.096;2023-02-13T08:08:05;93811.97;;;4.19;51.64
61963;BME280;47927;42.646;23.096;2023-02-13T08:10:31;93803.34;;;4.29;51.16
61963;BME280;47927;42.646;23.096;2023-02-13T08:13:15;93792.97;;;4.67;49.46
61963;BME280;47927;42.646;23.096;2023-02-13T08:15:41;93821.50;;;4.75;50.19
61963;BME280;47927;42.646;23.096;2023-02-13T08:18:09;93821.81;;;4.55;49.53
61963;BME280;47927;42.646;23.096;2023-02-13T08:20:35;93815.22;;;4.82;49.82
61963;BME280;47927;42.646;23.096;2023-02-13T08:23:02;93810.91;;;5.10;48.88
61963;BME280;47927;42.646;23.096;2023-02-13T08:25:28;93814.91;;;5.02;48.92
61963;BME280;47927;42.646;23.096;2023-02-13T08:27:54;93812.28;;;5.35;48.57
61963;BME280;47927;42.646;23.096;2023-02-13T08:30:20;93812.47;;;5.38;48.56
61963;BME280;47927;42.646;23.096;2023-02-13T08:32:45;93820.25;;;5.52;48.42
61963;BME280;47927;42.646;23.096;2023-02-13T08:35:11;93815.25;;;5.42;48.07
61963;BME280;47927;42.646;23.096;2023-02-13T09:07:54;93808.19;;;5.89;46.72
61963;BME280;47927;42.646;23.096;2023-02-13T09:10:20;93807.72;;;4.99;48.04
61963;BME280;47927;42.646;23.096;2023-02-13T09:12:52;93813.53;;;4.91;50.11
61963;BME280;47927;42.646;23.096;2023-02-13T09:15:18;93816.22;;;5.74;48.59
61963;BME280;47927;42.646;23.096;2023-02-13T09:17:43;93818.78;;;6.15;47.18
61963;BME280;47927;42.646;23.096;2023-02-13T09:20:09;93819.91;;;6.73;45.82
61963;BME280;47927;42.646;23.096;2023-02-13T09:22:39;93815.13;;;7.11;44.90
61963;BME280;47927;42.646;23.096;2023-02-13T09:25:06;93811.63;;;7.16;44.40
61963;BME280;47927;42.646;23.096;2023-02-13T09:27:32;93813.53;;;7.33;44.09
61963;BME280;47927;42.646;23.096;2023-02-13T09:29:59;93812.34;;;7.79;43.03
61963;BME280;47927;42.646;23.096;2023-02-13T09:32:25;93814.41;;;8.16;41.53
61963;BME280;47927;42.646;23.096;2023-02-13T09:34:50;93804.78;;;9.12;40.08
61963;BME280;47927;42.646;23.096;2023-02-13T09:37:16;93805.38;;;9.27;40.08
61963;BME280;47927;42.646;23.096;2023-02-13T09:39:41;93792.81;;;9.38;39.46
61963;BME280;47927;42.646;23.096;2023-02-13T09:42:37;93792.94;;;9.79;38.45
61963;BME280;47927;42.646;23.096;2023-02-13T09:45:03;93794.44;;;10.40;37.22
61963;BME280;47927;42.646;23.096;2023-02-13T09:47:38;93770.41;;;10.55;35.91
61963;BME280;47927;42.646;23.096;2023-02-13T09:52:36;93785.66;;;10.86;35.83
61963;BME280;47927;42.646;23.096;2023-02-13T09:55:14;93771.00;;;11.64;34.43
61963;BME280;47927;42.646;23.096;2023-02-13T09:57:53;93781.88;;;12.27;33.24
61963;BME280;47927;42.646;23.096;2023-02-13T10:11:15;93767.50;;;15.10;29.71
61963;BME280;47927;42.646;23.096;2023-02-13T10:16:19;93765.78;;;14.40;30.56
